Terminal Aerodrome Forecast
Issued by NWS

Current Version | Previous Version | Graphics & Text | Print | Product List | Glossary On
Versions: 1 2 3 4 5 6 7 8 9 10 11 12 13 14 15 16 17 18 19 20 21 22 23 24 25 26 27 28 29
000
FTUS41 KRLX 242300
TAFCKB
TAF
KCKB 242330Z 2500/2524 27007KT P6SM BKN012
      TEMPO 2501/2504 4SM -SHSN BKN008
     FM250500 27005KT 2SM -SHSN BKN008
     FM251300 VRB03KT P6SM BKN015=

USA.gov is the U.S. government's official web portal to all federal, state and local government web resources and services.